Filley, Nebraska
Current Conditions -  °F | °C
As of 4:15 PM on Friday 24 Oct 2014 (Local Time) from KBIE Reporting Station
Clear Clear  
Wind Chill: 77°   Ceiling: Unl
Heat Index: 79°   Visibility: 10mi
Dew Point: 60°   Wind: 12mph
Humidity: 54%   Direction: 250°WSW
Pressure: 29.9"   Gusts: 17mph
Location:  40.29°N, 96.54°W
Report Text: KBIE 242115Z AUTO 25010G15KT 10SM CLR 25/15 A2990 RMK AO2 T02510153
Loading
Personal Weather Stations






























Interactive Weather Map
Tropical Storm Tracking
New forecast layout! Learn more

10-Day Weather Forecast

Advertisements
Track Severe Weather on mobile